createdAt,value
2022-08-23T00:00:58.914Z,20.74
2022-08-23T00:03:45.977Z,20.73
2022-08-23T00:06:29.096Z,20.73
2022-08-23T00:09:20.639Z,20.77
2022-08-23T00:12:22.290Z,20.77
2022-08-23T00:15:11.992Z,20.73
2022-08-23T00:17:55.884Z,20.70
2022-08-23T00:20:45.025Z,20.70
2022-08-23T00:23:27.072Z,20.69
2022-08-23T00:26:24.888Z,20.70
2022-08-23T00:29:12.226Z,20.68
2022-08-23T00:31:54.113Z,20.68
2022-08-23T00:34:43.892Z,20.72
2022-08-23T00:37:26.358Z,20.71
2022-08-23T00:40:17.084Z,20.71
2022-08-23T00:43:34.197Z,20.70
2022-08-23T00:46:53.283Z,20.69
2022-08-23T00:49:35.051Z,20.75
2022-08-23T00:52:36.913Z,20.83
2022-08-23T00:55:21.223Z,20.83
2022-08-23T00:58:10.467Z,20.78
2022-08-23T01:00:52.036Z,20.73
2022-08-23T01:03:44.306Z,20.68
2022-08-23T01:06:36.387Z,20.66
2022-08-23T01:09:29.947Z,20.58
2022-08-23T01:12:33.126Z,20.56
2022-08-23T01:15:30.534Z,20.58
2022-08-23T01:18:19.954Z,20.60
2022-08-23T01:21:19.998Z,20.57
2022-08-23T01:24:05.137Z,20.63
2022-08-23T01:26:55.234Z,20.56
2022-08-23T01:29:36.096Z,20.63
2022-08-23T01:32:25.039Z,20.54
2022-08-23T01:35:06.337Z,20.60
2022-08-23T01:37:54.503Z,20.57
2022-08-23T01:40:36.462Z,20.61
2022-08-23T01:43:29.109Z,20.50
2022-08-23T01:46:20.035Z,20.49
2022-08-23T01:49:09.079Z,20.46
2022-08-23T01:51:52.724Z,20.46
2022-08-23T01:54:43.114Z,20.45
2022-08-23T01:57:24.295Z,20.54
2022-08-23T02:00:14.361Z,20.49
2022-08-23T02:02:57.297Z,20.45
2022-08-23T02:05:47.221Z,20.40
2022-08-23T02:08:47.851Z,20.32
2022-08-23T02:11:49.151Z,20.31
2022-08-23T02:14:32.120Z,20.39
2022-08-23T02:17:20.035Z,20.39
2022-08-23T02:20:02.276Z,20.42
2022-08-23T02:22:49.019Z,20.37
2022-08-23T02:25:32.517Z,20.38
2022-08-23T02:28:27.007Z,20.40
2022-08-23T02:31:15.099Z,20.45
2022-08-23T02:33:59.381Z,20.40
2022-08-23T02:36:47.618Z,20.48
2022-08-23T02:39:30.052Z,20.38
2022-08-23T02:42:19.103Z,20.39
2022-08-23T02:45:02.039Z,20.42
2022-08-23T02:47:48.448Z,20.35
2022-08-23T02:50:41.843Z,20.29
2022-08-23T02:53:30.148Z,20.24
2022-08-23T02:56:21.571Z,20.27
2022-08-23T02:59:10.071Z,20.28
2022-08-23T03:01:52.122Z,20.22
2022-08-23T03:04:37.987Z,20.16
2022-08-23T03:07:28.242Z,20.18
2022-08-23T03:10:17.085Z,20.26
2022-08-23T03:13:05.868Z,20.26
2022-08-23T03:15:54.966Z,20.19
2022-08-23T03:18:37.121Z,20.21
2022-08-23T03:21:26.177Z,20.30
2022-08-23T03:24:10.324Z,20.25
2022-08-23T03:27:05.001Z,20.23
2022-08-23T03:29:54.790Z,20.22
2022-08-23T03:32:38.437Z,20.22
2022-08-23T03:35:27.280Z,20.13
2022-08-23T03:38:09.197Z,20.23
2022-08-23T03:40:59.594Z,20.26
2022-08-23T03:43:40.570Z,20.18
2022-08-23T03:46:33.931Z,20.24
2022-08-23T03:49:16.131Z,20.26
2022-08-23T03:52:14.166Z,20.24
2022-08-23T03:54:55.220Z,20.15
2022-08-23T03:57:48.361Z,20.19
2022-08-23T04:00:29.167Z,20.14
2022-08-23T04:03:17.093Z,20.18
2022-08-23T04:06:05.832Z,20.21
2022-08-23T04:08:53.355Z,20.21
2022-08-23T04:11:34.166Z,20.29
2022-08-23T04:14:22.234Z,20.29
2022-08-23T04:17:04.180Z,20.24
2022-08-23T04:19:51.089Z,20.23
2022-08-23T04:22:32.188Z,20.22
2022-08-23T04:25:34.730Z,20.28
2022-08-23T04:28:22.191Z,20.26
2022-08-23T04:31:03.053Z,20.29
2022-08-23T04:33:54.331Z,20.28
2022-08-23T04:36:50.023Z,20.28
2022-08-23T04:40:02.955Z,20.32
2022-08-23T04:45:59.196Z,20.32
2022-08-23T04:48:42.076Z,20.32
2022-08-23T04:51:32.575Z,20.36
2022-08-23T04:54:14.074Z,20.35
2022-08-23T04:57:25.659Z,20.34
2022-08-23T05:00:14.080Z,20.38
2022-08-23T05:02:59.640Z,20.39
2022-08-23T05:05:48.843Z,20.37
2022-08-23T05:08:35.819Z,20.34
2022-08-23T05:11:26.163Z,20.34
2022-08-23T05:14:14.157Z,20.31
2022-08-23T05:16:55.292Z,20.31
2022-08-23T05:19:47.018Z,20.37
2022-08-23T05:22:29.029Z,20.35
2022-08-23T05:25:49.491Z,20.36
2022-08-23T05:28:57.207Z,20.40
2022-08-23T05:31:44.548Z,20.42
2022-08-23T05:34:37.092Z,20.40
2022-08-23T05:37:28.217Z,20.43
2022-08-23T05:40:09.241Z,20.48
2022-08-23T05:43:03.503Z,20.46
2022-08-23T05:45:52.285Z,20.53
2022-08-23T05:48:42.186Z,20.61
2022-08-23T05:51:27.191Z,20.66
2022-08-23T05:54:16.821Z,20.64
2022-08-23T05:57:18.538Z,20.69
2022-08-23T06:00:06.894Z,20.68
2022-08-23T06:02:57.476Z,20.68
2022-08-23T06:05:46.217Z,20.67
2022-08-23T06:08:30.203Z,20.76
2022-08-23T06:11:27.417Z,20.75
2022-08-23T06:14:10.596Z,20.84
2022-08-23T06:16:58.206Z,20.84
2022-08-23T06:19:41.356Z,20.90
2022-08-23T06:22:50.874Z,20.97
2022-08-23T06:25:39.512Z,21.03
2022-08-23T06:28:32.220Z,21.19
2022-08-23T06:31:14.056Z,21.28
2022-08-23T06:34:12.681Z,21.41
2022-08-23T06:37:37.507Z,21.66
2022-08-23T06:40:36.841Z,22.18
2022-08-23T06:43:42.143Z,23.18
2022-08-23T06:46:30.637Z,24.35
2022-08-23T06:49:21.725Z,25.12
2022-08-23T06:52:10.224Z,26.08
2022-08-23T06:55:18.555Z,27.39
2022-08-23T06:58:13.198Z,28.53
2022-08-23T07:01:47.300Z,29.34
2022-08-23T07:04:42.249Z,29.59
2022-08-23T07:07:44.366Z,30.15
2022-08-23T07:10:34.306Z,30.34
2022-08-23T07:13:18.748Z,30.56
2022-08-23T07:16:08.200Z,30.56
2022-08-23T07:18:49.618Z,30.18
2022-08-23T07:21:43.269Z,29.80
2022-08-23T07:24:33.026Z,29.44
2022-08-23T07:27:29.139Z,29.68
2022-08-23T07:30:19.588Z,30.66
2022-08-23T07:33:00.486Z,30.97
2022-08-23T07:35:56.300Z,30.70
2022-08-23T07:38:39.831Z,30.14
2022-08-23T07:41:27.437Z,29.47
2022-08-23T07:44:10.279Z,28.85
2022-08-23T07:47:03.214Z,28.25
2022-08-23T07:49:47.110Z,27.63
2022-08-23T07:52:35.630Z,26.93
2022-08-23T07:55:16.291Z,26.43
2022-08-23T07:58:25.566Z,25.95
2022-08-23T08:01:32.176Z,25.48
2022-08-23T08:04:21.199Z,25.20
2022-08-23T08:07:20.961Z,25.01
2022-08-23T08:10:13.244Z,24.83
2022-08-23T08:12:55.511Z,24.84
2022-08-23T08:15:48.327Z,24.80
2022-08-23T08:18:33.348Z,24.76
2022-08-23T08:21:57.823Z,24.55
2022-08-23T08:24:56.421Z,24.42
2022-08-23T08:27:51.623Z,24.30
2022-08-23T08:30:39.301Z,24.31
2022-08-23T08:33:21.336Z,24.29
2022-08-23T08:36:15.455Z,24.27
2022-08-23T08:39:00.775Z,24.32
2022-08-23T08:42:07.328Z,24.32
2022-08-23T08:45:04.776Z,24.28
2022-08-23T08:48:11.332Z,24.27
2022-08-23T08:51:10.224Z,24.19
2022-08-23T08:54:01.319Z,24.12
2022-08-23T08:56:51.651Z,24.09
2022-08-23T08:59:59.453Z,24.04
2022-08-23T09:02:44.531Z,24.07
2022-08-23T09:05:39.930Z,24.09
2022-08-23T09:08:49.212Z,24.04
2022-08-23T09:11:50.520Z,24.05
2022-08-23T09:14:31.763Z,24.08
2022-08-23T09:17:28.356Z,24.20
2022-08-23T09:20:11.423Z,24.40
2022-08-23T09:23:31.719Z,24.64
2022-08-23T09:26:32.298Z,24.92
2022-08-23T09:29:40.375Z,25.27
2022-08-23T09:32:39.622Z,25.68
2022-08-23T09:35:32.855Z,26.10
2022-08-23T09:38:27.801Z,26.24
2022-08-23T09:41:24.391Z,26.64
2022-08-23T09:44:10.253Z,27.01
2022-08-23T09:46:57.853Z,27.34
2022-08-23T09:49:39.127Z,27.65
2022-08-23T09:52:32.411Z,28.00
2022-08-23T09:55:34.692Z,28.09
2022-08-23T09:58:47.195Z,27.91
2022-08-23T10:01:58.769Z,27.48
2022-08-23T10:05:14.845Z,27.17
2022-08-23T10:08:10.877Z,27.07
2022-08-23T10:11:10.622Z,27.01
2022-08-23T10:13:53.455Z,27.02
2022-08-23T10:17:08.171Z,27.11
2022-08-23T10:20:19.387Z,27.37
2022-08-23T10:23:24.820Z,27.79
2022-08-23T10:26:06.639Z,28.04
2022-08-23T10:29:26.281Z,28.14
2022-08-23T10:32:27.763Z,28.05
2022-08-23T10:35:30.719Z,27.90
2022-08-23T10:38:30.309Z,27.63
2022-08-23T10:41:37.361Z,27.47
2022-08-23T10:44:40.295Z,27.43
2022-08-23T10:47:27.524Z,27.32
2022-08-23T10:50:19.279Z,27.26
2022-08-23T10:53:17.563Z,27.25
2022-08-23T10:56:09.561Z,27.34
2022-08-23T10:59:21.550Z,27.46
2022-08-23T11:02:34.009Z,27.73
2022-08-23T11:05:31.765Z,27.83
2022-08-23T11:08:46.910Z,27.83
2022-08-23T11:11:43.539Z,27.66
2022-08-23T11:14:55.172Z,27.51
2022-08-23T11:17:56.472Z,27.33
2022-08-23T11:20:56.689Z,27.23
2022-08-23T11:24:08.198Z,27.20
2022-08-23T11:27:00.749Z,27.36
2022-08-23T11:29:55.570Z,27.54
2022-08-23T11:32:49.359Z,27.73
2022-08-23T11:36:04.824Z,27.87
2022-08-23T11:38:55.672Z,27.85
2022-08-23T11:42:18.405Z,27.83
2022-08-23T11:45:01.465Z,27.78
2022-08-23T11:47:53.274Z,27.72
2022-08-23T11:50:39.791Z,27.66
2022-08-23T11:53:30.541Z,27.57
2022-08-23T11:56:16.347Z,27.35
2022-08-23T11:59:16.307Z,27.31
2022-08-23T12:02:01.694Z,27.34
2022-08-23T12:04:56.434Z,27.29
2022-08-23T12:08:00.047Z,27.38
2022-08-23T12:10:47.787Z,27.34
2022-08-23T12:13:28.873Z,27.39
2022-08-23T12:16:49.787Z,27.46
2022-08-23T12:19:40.742Z,27.31
2022-08-23T12:22:31.651Z,27.12
2022-08-23T12:25:16.457Z,26.98
2022-08-23T12:28:38.349Z,26.95
2022-08-23T12:31:43.628Z,26.97
2022-08-23T12:34:31.951Z,26.93
2022-08-23T12:37:46.840Z,26.89
2022-08-23T12:40:39.786Z,27.02
2022-08-23T12:43:36.640Z,27.20
2022-08-23T12:46:19.645Z,27.36
2022-08-23T12:52:14.535Z,27.48
2022-08-23T12:55:05.103Z,27.50
2022-08-23T12:57:49.840Z,27.40
2022-08-23T13:00:44.755Z,27.39
2022-08-23T13:03:30.482Z,27.45
2022-08-23T13:06:24.513Z,27.48
2022-08-23T13:09:28.960Z,27.43
2022-08-23T13:12:17.490Z,27.39
2022-08-23T13:15:02.758Z,27.26
2022-08-23T13:17:51.127Z,27.11
2022-08-23T13:20:33.017Z,27.05
2022-08-23T13:23:24.366Z,27.01
2022-08-23T13:26:38.357Z,26.99
2022-08-23T13:29:33.784Z,26.95
2022-08-23T13:32:37.168Z,26.91
2022-08-23T13:35:56.524Z,26.78
2022-08-23T13:38:39.679Z,26.64
2022-08-23T13:41:40.402Z,26.45
2022-08-23T13:44:23.885Z,26.28
2022-08-23T13:47:12.780Z,26.16
2022-08-23T13:49:53.562Z,26.07
2022-08-23T13:53:12.992Z,26.10
2022-08-23T13:56:02.665Z,26.04
2022-08-23T13:59:31.173Z,25.97
2022-08-23T14:02:18.533Z,25.93
2022-08-23T14:05:09.626Z,25.96
2022-08-23T14:07:54.239Z,25.98
2022-08-23T14:10:42.537Z,26.02
2022-08-23T14:13:24.508Z,25.98
2022-08-23T14:19:54.734Z,25.92
2022-08-23T14:22:29.980Z,25.93
2022-08-23T14:25:12.497Z,25.88
2022-08-23T14:28:01.513Z,25.85
2022-08-23T14:30:48.581Z,25.82
2022-08-23T14:33:30.173Z,25.79
2022-08-23T14:36:18.830Z,25.77
2022-08-23T14:39:02.693Z,25.75
2022-08-23T14:41:52.287Z,25.76
2022-08-23T14:44:35.942Z,25.77
2022-08-23T14:47:24.655Z,25.76
2022-08-23T14:50:05.439Z,25.75
2022-08-23T14:52:54.114Z,25.75
2022-08-23T14:55:34.435Z,25.78
2022-08-23T14:58:21.731Z,25.83
2022-08-23T15:01:03.033Z,25.78
2022-08-23T15:03:52.051Z,25.81
2022-08-23T15:06:32.471Z,25.91
2022-08-23T15:09:19.623Z,26.01
2022-08-23T15:15:12.415Z,26.13
2022-08-23T15:18:03.441Z,26.11
2022-08-23T15:20:52.172Z,26.03
2022-08-23T15:23:33.558Z,25.95
2022-08-23T15:26:28.377Z,25.88
2022-08-23T15:29:23.768Z,25.90
2022-08-23T15:32:10.613Z,25.93
2022-08-23T15:34:53.468Z,26.02
2022-08-23T15:37:43.355Z,26.09
2022-08-23T15:40:25.699Z,26.16
2022-08-23T15:43:12.661Z,26.20
2022-08-23T15:45:55.924Z,26.21
2022-08-23T15:48:50.719Z,26.19
2022-08-23T15:51:34.668Z,26.20
2022-08-23T15:54:23.773Z,26.12
2022-08-23T15:57:05.259Z,26.08
2022-08-23T15:59:54.981Z,26.02
2022-08-23T16:03:18.258Z,25.98
2022-08-23T16:05:57.599Z,25.91
2022-08-23T16:08:42.271Z,25.84
2022-08-23T16:11:31.904Z,25.81
2022-08-23T16:14:13.265Z,25.70
2022-08-23T16:17:01.809Z,25.68
2022-08-23T16:19:44.148Z,25.68
2022-08-23T16:22:32.648Z,25.58
2022-08-23T16:25:15.296Z,25.60
2022-08-23T16:28:04.773Z,25.67
2022-08-23T16:30:52.736Z,25.74
2022-08-23T16:33:35.120Z,25.68
2022-08-23T16:36:29.733Z,25.65
2022-08-23T16:39:12.650Z,25.76
2022-08-23T16:42:01.125Z,25.83
2022-08-23T16:44:41.808Z,25.95
2022-08-23T16:47:30.583Z,26.07
2022-08-23T16:50:12.763Z,26.15
2022-08-23T16:53:07.089Z,26.15
2022-08-23T16:55:51.032Z,26.18
2022-08-23T16:58:37.727Z,26.17
2022-08-23T17:01:19.892Z,26.18
2022-08-23T17:04:06.538Z,26.16
2022-08-23T17:06:47.994Z,26.03
2022-08-23T17:09:36.528Z,25.89
2022-08-23T17:12:17.781Z,25.84
2022-08-23T17:15:06.278Z,25.68
2022-08-23T17:17:51.327Z,25.60
2022-08-23T17:20:43.590Z,25.54
2022-08-23T17:23:24.623Z,25.51
2022-08-23T17:26:14.341Z,25.49
2022-08-23T17:29:11.536Z,25.51
2022-08-23T17:31:59.634Z,25.58
2022-08-23T17:34:40.627Z,25.55
2022-08-23T17:37:30.296Z,25.57
2022-08-23T17:40:21.466Z,25.50
2022-08-23T17:43:11.591Z,25.45
2022-08-23T17:45:56.722Z,25.42
2022-08-23T17:48:45.294Z,25.45
2022-08-23T17:51:27.227Z,25.39
2022-08-23T17:54:19.055Z,25.42
2022-08-23T17:57:00.809Z,25.36
2022-08-23T17:59:48.688Z,25.29
2022-08-23T18:02:31.576Z,25.23
2022-08-23T18:05:21.322Z,25.18
2022-08-23T18:08:03.293Z,25.21
2022-08-23T18:10:50.908Z,25.19
2022-08-23T18:13:34.599Z,25.14
2022-08-23T18:16:22.634Z,25.06
2022-08-23T18:19:04.692Z,24.95
2022-08-23T18:21:54.671Z,24.92
2022-08-23T18:24:37.124Z,24.90
2022-08-23T18:27:46.565Z,24.86
2022-08-23T18:30:40.547Z,24.87
2022-08-23T18:33:46.454Z,24.82
2022-08-23T18:36:28.730Z,24.73
2022-08-23T18:39:31.870Z,24.67
2022-08-23T18:42:14.624Z,24.63
2022-08-23T18:45:03.725Z,24.61
2022-08-23T18:47:46.192Z,24.58
2022-08-23T18:50:34.732Z,24.56
2022-08-23T18:53:16.704Z,24.55
2022-08-23T18:56:04.971Z,24.57
2022-08-23T18:58:47.966Z,24.50
2022-08-23T19:01:40.794Z,24.48
2022-08-23T19:04:21.940Z,24.41
2022-08-23T19:07:10.472Z,24.34
2022-08-23T19:09:53.237Z,24.29
2022-08-23T19:12:51.863Z,24.26
2022-08-23T19:15:35.747Z,24.18
2022-08-23T19:18:23.590Z,24.12
2022-08-23T19:21:05.939Z,24.04
2022-08-23T19:23:58.614Z,23.98
2022-08-23T19:26:44.449Z,23.92
2022-08-23T19:29:34.598Z,23.85
2022-08-23T19:32:16.831Z,23.81
2022-08-23T19:35:04.338Z,23.78
2022-08-23T19:37:45.731Z,23.74
2022-08-23T19:40:35.603Z,23.64
2022-08-23T19:43:19.958Z,23.57
2022-08-23T19:46:06.672Z,23.51
2022-08-23T19:48:48.764Z,23.44
2022-08-23T19:51:36.598Z,23.36
2022-08-23T19:54:18.103Z,23.31
2022-08-23T19:57:07.996Z,23.26
2022-08-23T19:59:49.712Z,23.21
2022-08-23T20:02:36.619Z,23.19
2022-08-23T20:05:18.235Z,23.18
2022-08-23T20:08:06.383Z,23.18
2022-08-23T20:10:47.726Z,23.17
2022-08-23T20:13:34.716Z,23.17
2022-08-23T20:16:15.927Z,23.16
2022-08-23T20:19:08.934Z,23.14
2022-08-23T20:21:50.822Z,23.17
2022-08-23T20:24:51.564Z,23.18
2022-08-23T20:27:37.031Z,23.24
2022-08-23T20:30:35.734Z,23.27
2022-08-23T20:33:23.811Z,23.25
2022-08-23T20:36:07.182Z,23.22
2022-08-23T20:38:55.123Z,23.17
2022-08-23T20:41:39.118Z,23.14
2022-08-23T20:44:30.226Z,23.09
2022-08-23T20:47:11.764Z,23.09
2022-08-23T20:49:59.368Z,23.10
2022-08-23T20:52:40.649Z,23.01
2022-08-23T20:55:31.778Z,22.91
2022-08-23T20:58:13.771Z,22.84
2022-08-23T21:01:00.952Z,22.81
2022-08-23T21:03:44.680Z,22.75
2022-08-23T21:06:45.096Z,22.72
2022-08-23T21:09:31.042Z,22.68
2022-08-23T21:12:19.386Z,22.65
2022-08-23T21:15:00.682Z,22.65
2022-08-23T21:17:51.889Z,22.66
2022-08-23T21:20:34.498Z,22.66
2022-08-23T21:23:25.670Z,22.67
2022-08-23T21:26:09.474Z,22.65
2022-08-23T21:29:05.667Z,22.66
2022-08-23T21:31:52.798Z,22.65
2022-08-23T21:34:33.879Z,22.67
2022-08-23T21:37:22.110Z,22.65
2022-08-23T21:40:01.885Z,22.61
2022-08-23T21:42:50.014Z,22.59
2022-08-23T21:45:32.079Z,22.57
2022-08-23T21:48:19.729Z,22.52
2022-08-23T21:51:00.810Z,22.50
2022-08-23T21:53:50.581Z,22.44
2022-08-23T21:56:32.383Z,22.38
2022-08-23T21:59:23.725Z,22.32
2022-08-23T22:02:04.851Z,22.30
2022-08-23T22:04:52.675Z,22.26
2022-08-23T22:07:35.070Z,22.23
2022-08-23T22:10:22.762Z,22.18
2022-08-23T22:13:04.062Z,22.12
2022-08-23T22:15:52.127Z,22.08
2022-08-23T22:18:33.776Z,22.06
2022-08-23T22:21:21.707Z,21.99
2022-08-23T22:24:02.851Z,21.95
2022-08-23T22:27:00.300Z,21.91
2022-08-23T22:29:53.712Z,21.88
2022-08-23T22:32:41.599Z,21.85
2022-08-23T22:35:22.826Z,21.81
2022-08-23T22:38:14.011Z,21.75
2022-08-23T22:41:00.518Z,21.70
2022-08-23T22:43:49.551Z,21.63
2022-08-23T22:46:30.887Z,21.60
2022-08-23T22:49:20.135Z,21.54
2022-08-23T22:52:03.008Z,21.51
2022-08-23T22:54:49.721Z,21.43
2022-08-23T22:57:30.799Z,21.40
2022-08-23T23:00:19.226Z,21.37
2022-08-23T23:03:00.855Z,21.37
2022-08-23T23:05:49.950Z,21.34
2022-08-23T23:08:30.885Z,21.33
2022-08-23T23:11:20.868Z,21.27
2022-08-23T23:14:01.942Z,21.20
2022-08-23T23:16:50.961Z,21.19
2022-08-23T23:19:50.276Z,21.17
2022-08-23T23:22:38.959Z,21.19
2022-08-23T23:25:20.675Z,21.13
2022-08-23T23:28:09.127Z,21.08
2022-08-23T23:31:05.821Z,21.05
2022-08-23T23:33:54.153Z,21.01
2022-08-23T23:36:37.621Z,21.04
2022-08-23T23:39:26.139Z,20.98
2022-08-23T23:42:06.836Z,20.93
2022-08-23T23:44:54.065Z,20.94
2022-08-23T23:47:35.753Z,20.96
2022-08-23T23:50:23.154Z,20.92
2022-08-23T23:53:03.867Z,20.90
2022-08-23T23:55:50.741Z,20.89
2022-08-23T23:58:33.106Z,20.82
